Airport View

Enter AWOS ICAO identifier for current METAR.

ex. KFNL

KDRO 192053Z AUTO 17005G15KT 10SM CLR 29/M04 A3026 RMK AO2 SLP154 T02941039 56010

19 Aug 2019 21:26

Frequency: 120.625

Phone: 970-259-3579

Other Area AWOS: KFMN - KPSO - KCEZ - KTEX

TAF KDRO 191720Z 1918/2018 25005KT P6SM FEW150 FEW250 FM192000 23007KT P6SM FEW150 FEW250 FM200100 27007KT P6SM SKC FM200200 30006KT P6SM SKC